Time;durP1;ratioP1;P1;durP2;ratioP2;P2;SDS_P1;SDS_P2;PMS_P1;PMS_P2;Temp;Humidity;BMP_temperature;BMP_pressure;BME280_temperature;BME280_humidity;BME280_pressure;Samples;Min_cycle;Max_cycle;Signal;HPM_P1;HPM_P2
2022/11/16 00:01:28;;;;;;;70.20;32.45;;;;;;;5.63;97.33;97382.06;10290439;28;20110;-56
2022/11/16 00:06:27;;;;;;;63.95;28.52;;;;;;;5.46;97.85;97382.72;10289284;28;20062;-56
2022/11/16 00:11:26;;;;;;;67.47;30.45;;;;;;;5.39;98.40;97372.28;10289877;28;20076;-56
2022/11/16 00:16:25;;;;;;;87.80;31.38;;;;;;;5.35;98.03;97368.84;10289976;28;20130;-56
2022/11/16 00:21:26;;;;;;;96.53;31.63;;;;;;;5.29;98.25;97361.88;10290686;28;20036;-56
2022/11/16 00:26:25;;;;;;;84.55;32.53;;;;;;;5.33;97.89;97360.22;10289976;28;20450;-56
2022/11/16 00:31:24;;;;;;;72.15;30.85;;;;;;;5.24;97.88;97360.09;10289916;28;20058;-56
2022/11/16 00:36:23;;;;;;;64.93;29.63;;;;;;;5.25;98.22;97352.41;10289780;28;20061;-56
2022/11/16 00:41:23;;;;;;;94.53;30.85;;;;;;;5.26;98.31;97358.41;10290434;28;20046;-56
2022/11/16 00:46:22;;;;;;;62.10;28.33;;;;;;;5.21;98.74;97360.94;10295913;28;20068;-56
2022/11/16 00:51:21;;;;;;;81.40;30.23;;;;;;;5.21;98.52;97349.78;10297476;28;20077;-56
2022/11/16 00:56:20;;;;;;;130.43;34.33;;;;;;;5.21;99.26;97344.63;10297813;28;20129;-56
2022/11/16 01:01:19;;;;;;;68.68;29.77;;;;;;;5.22;99.01;97341.19;10296837;28;20092;-56
2022/11/16 01:06:19;;;;;;;82.53;29.50;;;;;;;5.14;99.14;97330.81;10297861;28;20034;-56
2022/11/16 01:16:36;;;;;;;94.97;27.55;;;;;;;4.95;98.62;97306.56;10297676;28;20457;-56
2022/11/16 01:21:35;;;;;;;89.95;26.52;;;;;;;4.79;99.13;97291.72;10296331;28;20075;-56
2022/11/16 01:26:34;;;;;;;71.75;28.25;;;;;;;4.61;99.32;97272.63;10294681;28;20446;-56
2022/11/16 01:31:33;;;;;;;65.63;27.73;;;;;;;4.75;99.53;97292.53;10295960;28;20030;-56
2022/11/16 01:36:32;;;;;;;97.82;30.38;;;;;;;4.69;99.30;97280.47;10296317;28;20413;-56
2022/11/16 01:41:31;;;;;;;97.07;30.05;;;;;;;4.62;99.68;97268.34;10296296;28;20033;-56
2022/11/16 01:46:30;;;;;;;243.20;36.90;;;;;;;4.41;100.00;97256.06;10295487;28;20034;-56
2022/11/16 01:51:31;;;;;;;183.23;32.58;;;;;;;4.35;100.00;97266.22;10294784;28;20073;-56
2022/11/16 01:56:31;;;;;;;121.70;32.42;;;;;;;4.25;100.00;97262.66;10294974;28;20057;-55
2022/11/16 02:01:30;;;;;;;281.50;41.20;;;;;;;4.24;100.00;97266.94;10295325;28;20053;-56
2022/11/16 02:06:38;;;;;;;122.07;31.25;;;;;;;4.33;100.00;97253.34;10295047;28;20030;-56
2022/11/16 02:11:36;;;;;;;99.75;30.20;;;;;;;4.37;100.00;97255.13;10294492;28;20076;-56
2022/11/16 02:17:03;;;;;;;110.32;31.23;;;;;;;4.40;100.00;97244.91;10294521;28;20387;-56
2022/11/16 02:22:14;;;;;;;74.82;27.80;;;;;;;4.47;100.00;97249.28;10294316;28;20060;-56
2022/11/16 02:27:35;;;;;;;140.60;32.08;;;;;;;4.46;100.00;97244.16;10293858;28;20053;-57
2022/11/16 02:32:42;;;;;;;163.43;34.17;;;;;;;4.44;100.00;97238.13;10293796;28;20053;-58
2022/11/16 02:37:56;;;;;;;108.80;28.98;;;;;;;4.38;100.00;97238.00;10293659;28;20072;-57
2022/11/16 02:43:03;;;;;;;149.75;31.48;;;;;;;4.26;100.00;97219.00;10293579;28;20061;-57
2022/11/16 02:48:08;;;;;;;83.03;26.77;;;;;;;4.22;100.00;97217.25;10293866;28;20477;-58
2022/11/16 02:53:07;;;;;;;94.43;27.33;;;;;;;4.20;100.00;97200.94;10292865;28;20068;-57
2022/11/16 02:58:11;;;;;;;154.02;29.65;;;;;;;4.21;100.00;97212.09;10293274;28;20022;-58
2022/11/16 03:03:28;;;;;;;157.30;30.25;;;;;;;4.17;100.00;97198.31;10293042;28;20072;-57
2022/11/16 03:08:36;;;;;;;94.90;27.15;;;;;;;4.13;100.00;97201.69;10292167;28;20474;-55
2022/11/16 03:13:37;;;;;;;97.72;24.95;;;;;;;4.04;100.00;97199.84;10292268;28;20100;-55
2022/11/16 03:18:38;;;;;;;107.88;25.27;;;;;;;3.95;100.00;97193.72;10292157;28;20080;-55
2022/11/16 03:23:37;;;;;;;79.10;23.83;;;;;;;3.82;100.00;97197.75;10292094;28;20057;-55
2022/11/16 03:28:48;;;;;;;75.15;24.17;;;;;;;3.78;100.00;97191.72;10291680;28;21897;-55
2022/11/16 03:33:54;;;;;;;82.72;23.05;;;;;;;3.57;100.00;97174.28;10292160;28;20490;-55
2022/11/16 03:38:58;;;;;;;125.45;30.65;;;;;;;3.49;100.00;97168.13;10291411;28;20073;-56
2022/11/16 03:43:58;;;;;;;102.95;29.13;;;;;;;3.50;100.00;97175.00;10291222;28;20073;-56
2022/11/16 03:48:58;;;;;;;85.07;32.55;;;;;;;3.36;100.00;97182.44;10291090;28;20065;-56
2022/11/16 03:53:57;;;;;;;86.88;34.40;;;;;;;3.35;100.00;97180.72;10290929;28;20465;-56
2022/11/16 03:58:56;;;;;;;70.25;30.80;;;;;;;3.36;100.00;97166.22;10290137;28;20038;-56
2022/11/16 04:03:55;;;;;;;88.82;33.90;;;;;;;3.31;100.00;97147.28;10290792;28;20133;-56
2022/11/16 04:24:56;;;;;;;82.05;36.60;;;;;;;3.20;100.00;97134.28;10290094;28;20517;-57
2022/11/16 04:29:58;;;;;;;89.95;38.83;;;;;;;3.12;100.00;97123.91;10290044;28;20528;-57
2022/11/16 04:40:15;;;;;;;50.78;26.25;;;;;;;2.85;100.00;97124.25;10289911;28;20176;-57
2022/11/16 04:50:33;;;;;;;40.78;22.88;;;;;;;2.78;100.00;97114.72;10289339;28;20077;-57
2022/11/16 04:55:33;;;;;;;40.67;23.75;;;;;;;2.77;100.00;97110.44;10289729;28;20065;-57
2022/11/16 05:00:32;;;;;;;48.28;25.25;;;;;;;2.78;100.00;97104.47;10289515;28;20096;-57
2022/11/16 05:05:31;;;;;;;56.20;30.40;;;;;;;2.76;100.00;97106.13;10289355;28;20104;-57
2022/11/16 05:10:30;;;;;;;55.70;30.73;;;;;;;2.73;100.00;97093.28;10288983;28;20045;-57
2022/11/16 05:15:29;;;;;;;52.70;29.90;;;;;;;2.81;100.00;97084.03;10288973;28;20046;-56
2022/11/16 05:25:45;;;;;;;64.00;33.22;;;;;;;3.00;100.00;97068.16;10288813;28;20061;-57
2022/11/16 05:30:44;;;;;;;70.15;37.60;;;;;;;3.12;100.00;97069.19;10291564;28;20030;-57
2022/11/16 05:35:43;;;;;;;74.45;40.40;;;;;;;3.29;100.00;97080.63;10293885;28;20504;-56
2022/11/16 05:40:42;;;;;;;73.40;39.33;;;;;;;3.50;100.00;97067.28;10287727;28;20628;-56
2022/11/16 05:45:42;;;;;;;78.25;39.83;;;;;;;3.60;100.00;97060.56;10287154;28;20108;-56
2022/11/16 05:50:40;;;;;;;;;;;;;;;3.76;100.00;97065.09;10293838;28;20096;-56
2022/11/16 05:55:39;;;;;;;115.97;60.47;;;;;;;3.90;100.00;97060.16;10293704;28;20000;-56
2022/11/16 06:00:38;;;;;;;125.10;71.05;;;;;;;4.02;100.00;97075.72;10293795;28;20022;-56
2022/11/16 06:05:37;;;;;;;123.35;65.63;;;;;;;4.18;100.00;97073.38;10293172;28;20038;-56
2022/11/16 06:10:36;;;;;;;109.32;62.08;;;;;;;4.34;100.00;97075.31;10293200;28;20037;-56
2022/11/16 06:15:37;;;;;;;103.00;56.70;;;;;;;4.46;100.00;97084.88;10292858;28;20061;-56
2022/11/16 06:20:38;;;;;;;106.25;62.13;;;;;;;4.68;100.00;97071.41;10292358;28;20447;-56
2022/11/16 06:25:38;;;;;;;123.13;69.28;;;;;;;4.88;100.00;97078.47;10292056;28;20072;-56
2022/11/16 06:30:39;;;;;;;130.57;74.75;;;;;;;5.06;100.00;97071.00;10292267;28;20466;-56
2022/11/16 06:35:38;;;;;;;123.13;69.75;;;;;;;5.35;100.00;97062.66;10291647;28;20502;-56
2022/11/16 06:40:36;;;;;;;123.63;74.40;;;;;;;5.60;100.00;97071.41;10259565;28;20409;-56
2022/11/16 06:45:35;;;;;;;124.13;76.25;;;;;;;5.84;100.00;97073.34;10269075;28;20045;-56
2022/11/16 06:50:34;;;;;;;115.18;64.00;;;;;;;6.09;100.00;97073.47;10291633;28;20046;-57
2022/11/16 06:55:33;;;;;;;82.53;50.55;;;;;;;6.38;100.00;97069.34;10288769;28;20493;-57
2022/11/16 07:00:33;;;;;;;68.97;42.03;;;;;;;6.66;100.00;97059.13;10289080;28;20473;-57
2022/11/16 07:05:32;;;;;;;48.45;25.25;;;;;;;7.10;100.00;97055.81;10289115;28;20069;-58
2022/11/16 07:10:31;;;;;;;34.58;20.83;;;;;;;7.69;100.00;97051.53;10291068;28;20065;-56
2022/11/16 07:15:30;;;;;;;31.63;16.50;;;;;;;8.54;100.00;97043.56;10291313;28;20091;-56
2022/11/16 07:20:30;;;;;;;24.25;14.65;;;;;;;9.15;95.85;97038.88;10292726;28;20057;-56
2022/11/16 07:25:31;;;;;;;20.02;12.77;;;;;;;9.63;94.36;97022.13;10291337;28;20068;-56
2022/11/16 07:30:30;;;;;;;19.27;12.90;;;;;;;9.90;93.85;97027.06;10292605;28;20064;-57
2022/11/16 07:35:29;;;;;;;19.58;11.15;;;;;;;10.23;89.68;97022.38;10292773;28;20112;-58
2022/11/16 07:40:28;;;;;;;17.52;11.98;;;;;;;10.51;88.90;97016.88;10292576;28;20044;-58
2022/11/16 07:45:27;;;;;;;15.25;9.38;;;;;;;10.75;86.25;97020.88;10291990;28;20034;-57
2022/11/16 07:50:26;;;;;;;16.15;9.70;;;;;;;10.96;82.21;97010.25;10292135;28;20077;-56
2022/11/16 07:55:30;;;;;;;15.23;8.77;;;;;;;11.30;79.67;97012.34;10290977;28;20044;-57
2022/11/16 08:00:29;;;;;;;11.88;8.27;;;;;;;11.44;77.79;97007.75;10252186;28;20474;-58
2022/11/16 08:05:28;;;;;;;15.43;8.48;;;;;;;11.59;75.50;96993.66;10283116;28;20069;-57
2022/11/16 08:10:29;;;;;;;13.70;9.00;;;;;;;11.77;75.57;96989.88;10291831;28;20041;-58
2022/11/16 08:15:28;;;;;;;12.32;7.65;;;;;;;11.92;72.66;96998.28;10291504;28;20057;-56
2022/11/16 08:20:27;;;;;;;12.57;8.57;;;;;;;12.12;72.32;97000.53;10255858;28;20021;-57
2022/11/16 08:25:26;;;;;;;12.75;8.32;;;;;;;12.24;68.86;96985.50;10260792;28;20038;-55
2022/11/16 08:30:25;;;;;;;12.77;9.07;;;;;;;12.50;68.79;96978.94;10291373;28;20502;-56
2022/11/16 08:35:24;;;;;;;15.40;8.80;;;;;;;12.70;66.62;96974.19;10291355;28;20494;-56
2022/11/16 08:40:23;;;;;;;13.32;8.13;;;;;;;12.89;65.17;96963.34;10290087;28;20045;-56
2022/11/16 08:45:23;;;;;;;15.50;8.48;;;;;;;12.99;64.93;96959.63;10288424;28;20128;-56
2022/11/16 08:50:22;;;;;;;17.15;9.00;;;;;;;12.94;62.55;96956.28;10287432;28;20072;-57
2022/11/16 08:55:21;;;;;;;11.98;7.90;;;;;;;13.07;63.58;96960.34;10276391;28;20038;-57
2022/11/16 09:00:20;;;;;;;11.50;7.25;;;;;;;13.05;62.70;96963.88;10265892;28;20129;-56
2022/11/16 09:05:19;;;;;;;13.35;9.00;;;;;;;13.12;62.42;96935.03;10258102;28;20089;-58
2022/11/16 09:10:21;;;;;;;12.60;7.88;;;;;;;13.34;61.72;96939.69;10285525;28;20026;-57
2022/11/16 09:15:21;;;;;;;12.60;8.18;;;;;;;13.43;61.00;96938.63;10283028;28;20062;-57
2022/11/16 09:20:20;;;;;;;10.32;6.95;;;;;;;13.52;60.46;96921.00;10289187;28;20061;-56
2022/11/16 09:25:20;;;;;;;11.77;8.15;;;;;;;13.74;61.69;96917.84;10291743;28;20062;-57
2022/11/16 09:30:20;;;;;;;12.25;7.50;;;;;;;13.78;59.78;96922.09;10294825;28;20065;-57
2022/11/16 09:35:19;;;;;;;11.23;7.85;;;;;;;13.89;59.52;96908.72;10291493;28;20074;-57
2022/11/16 09:40:19;;;;;;;14.07;8.38;;;;;;;14.05;59.67;96906.56;10278644;28;20069;-56
2022/11/16 09:45:29;;;;;;;13.38;8.65;;;;;;;14.14;58.77;96898.47;10283001;28;20061;-58
2022/11/16 09:50:32;;;;;;;13.07;8.70;;;;;;;14.28;59.19;96891.09;10266710;28;20074;-57
2022/11/16 09:55:46;;;;;;;11.32;7.43;;;;;;;14.40;58.87;96882.91;10298451;28;20070;-58
2022/11/16 10:00:53;;;;;;;10.45;6.85;;;;;;;14.47;56.91;96873.09;10297304;28;20169;-57
2022/11/16 10:06:14;;;;;;;12.05;8.15;;;;;;;14.61;57.66;96859.63;10297242;28;20066;-58
2022/11/16 10:11:21;;;;;;;11.13;7.30;;;;;;;14.73;55.72;96859.28;10295193;28;20069;-58
2022/11/16 10:16:51;;;;;;;12.82;8.27;;;;;;;14.79;55.60;96853.00;10257824;28;20076;-56
2022/11/16 10:22:02;;;;;;;11.15;7.57;;;;;;;14.58;55.09;96849.28;10294840;28;20061;-57
2022/11/16 10:27:29;;;;;;;12.10;7.75;;;;;;;14.46;54.53;96844.47;10296362;28;20064;-57
2022/11/16 10:32:31;;;;;;;10.02;6.53;;;;;;;14.51;54.82;96842.56;10291557;28;20076;-57
2022/11/16 10:37:35;;;;;;;12.43;7.88;;;;;;;14.53;54.53;96833.78;10257849;28;20522;-57
2022/11/16 10:42:38;;;;;;;11.48;7.68;;;;;;;14.69;53.60;96836.75;10264714;28;20513;-57
2022/11/16 10:47:49;;;;;;;10.35;6.70;;;;;;;14.92;52.85;96832.56;10275749;28;20115;-57
2022/11/16 10:52:48;;;;;;;11.55;7.30;;;;;;;15.07;51.99;96825.97;10271046;28;20084;-57
2022/11/16 10:58:00;;;;;;;;;;;;;;;15.48;52.04;96821.91;10263657;28;20030;-57
2022/11/16 11:02:59;;;;;;;9.52;6.63;;;;;;;15.66;51.02;96815.19;10281443;28;20313;-57
2022/11/16 11:08:00;;;;;;;;;;;;;;;15.83;50.08;96809.34;10270799;28;20453;-57
2022/11/16 11:13:11;;;;;;;10.82;7.45;;;;;;;15.82;50.25;96807.66;10250827;28;19960;-55
2022/11/16 11:18:26;;;;;;;14.18;8.20;;;;;;;15.75;49.64;96803.53;10267808;28;20084;-57
2022/11/16 11:23:26;;;;;;;11.98;7.53;;;;;;;15.72;49.72;96793.19;10291486;28;20096;-57
2022/11/16 11:28:31;;;;;;;14.75;7.05;;;;;;;15.90;50.16;96781.19;10269392;28;20475;-57
2022/11/16 11:33:40;;;;;;;12.75;8.10;;;;;;;15.95;49.57;96779.25;10253318;28;20070;-57
2022/11/16 11:39:19;;;;;;;9.23;5.75;;;;;;;16.21;48.53;96776.50;10282535;28;20061;-57
2022/11/16 11:44:19;;;;;;;16.65;8.00;;;;;;;16.35;49.45;96773.34;10282918;28;20077;-58
2022/11/16 11:49:26;;;;;;;12.40;7.55;;;;;;;16.38;49.13;96772.38;10292933;28;20133;-56
2022/11/16 11:54:32;;;;;;;9.98;6.53;;;;;;;16.21;49.10;96757.34;10292829;28;20072;-55
2022/11/16 11:59:31;;;;;;;13.45;8.15;;;;;;;16.12;48.97;96757.69;10292522;28;20488;-56
2022/11/16 12:04:41;;;;;;;;;;;;;;;16.18;49.40;96745.19;10291153;28;20394;-56
2022/11/16 12:10:09;;;;;;;13.80;8.80;;;;;;;16.25;48.41;96736.19;10287256;28;19967;-57
2022/11/16 12:16:06;;;;;;;10.70;6.22;;;;;;;16.11;48.15;96741.13;10286564;28;20061;-57
2022/11/16 12:21:40;;;;;;;13.55;8.73;;;;;;;16.14;48.93;96742.75;10282094;28;20073;-57
2022/11/16 12:26:57;;;;;;;13.85;7.38;;;;;;;16.05;49.29;96729.13;10277971;28;20061;-57
2022/11/16 12:32:24;;;;;;;13.77;8.27;;;;;;;15.86;49.36;96717.69;10289978;28;20068;-56
2022/11/16 12:37:49;;;;;;;12.80;7.70;;;;;;;15.85;49.61;96722.06;10289470;28;20073;-56
2022/11/16 12:43:27;;;;;;;13.35;9.05;;;;;;;15.75;50.05;96693.69;10297134;28;20061;-56
2022/11/16 12:48:47;;;;;;;34.85;28.13;;;;;;;15.86;50.03;96702.00;10298471;28;20077;-57
2022/11/16 12:54:11;;;;;;;11.20;7.13;;;;;;;15.78;49.04;96701.41;10297865;28;20793;-57
2022/11/16 12:59:15;;;;;;;242.68;177.15;;;;;;;15.76;49.92;96695.38;10297615;28;20069;-57
2022/11/16 13:04:24;;;;;;;27.02;21.63;;;;;;;15.74;49.45;96690.22;10298736;28;20451;-56
2022/11/16 13:09:35;;;;;;;93.78;84.15;;;;;;;15.75;50.14;96694.53;10298130;28;20516;-56
2022/11/16 13:14:39;;;;;;;33.00;26.83;;;;;;;15.77;51.08;96692.69;10297339;28;20065;-57
2022/11/16 13:19:44;;;;;;;27.55;20.40;;;;;;;15.63;50.35;96688.00;10297128;28;20676;-57
2022/11/16 13:24:54;;;;;;;27.17;19.45;;;;;;;15.67;50.70;96691.38;10296999;28;20508;-57
2022/11/16 13:30:22;;;;;;;48.75;39.97;;;;;;;15.55;50.48;96697.91;10296679;28;20077;-56
2022/11/16 13:35:22;;;;;;;120.35;100.55;;;;;;;15.60;50.41;96680.28;10295819;28;20074;-56
2022/11/16 13:40:24;;;;;;;141.57;115.80;;;;;;;15.58;50.41;96679.47;10295985;28;20068;-56
2022/11/16 13:45:29;;;;;;;18.67;13.68;;;;;;;15.48;50.29;96680.72;10296707;28;20077;-56
2022/11/16 13:50:37;;;;;;;184.65;126.50;;;;;;;15.54;50.37;96684.88;10295493;28;20073;-56
2022/11/16 13:55:45;;;;;;;32.72;21.80;;;;;;;15.63;50.95;96672.31;10295139;28;20081;-56
2022/11/16 14:00:55;;;;;;;21.55;11.40;;;;;;;15.61;50.65;96668.91;10295227;28;20478;-56
2022/11/16 14:05:54;;;;;;;14.60;9.65;;;;;;;15.55;50.78;96677.00;10295647;28;20412;-56
2022/11/16 14:10:53;;;;;;;;;;;;;;;15.49;50.76;96673.75;10295916;28;20065;-56
2022/11/16 14:16:21;;;;;;;31.37;18.37;;;;;;;15.52;51.19;96671.84;10295715;28;19940;-56
2022/11/16 14:21:42;;;;;;;205.65;127.93;;;;;;;15.44;51.50;96668.69;10295230;28;20538;-57
2022/11/16 14:27:09;;;;;;;21.15;14.88;;;;;;;15.25;51.49;96669.38;10294759;28;20463;-57
2022/11/16 14:32:27;;;;;;;130.00;104.90;;;;;;;15.28;52.04;96659.72;10294080;28;20064;-57
2022/11/16 14:37:28;;;;;;;22.95;17.38;;;;;;;15.25;52.39;96658.94;10294180;28;20730;-57
2022/11/16 14:42:30;;;;;;;35.50;27.70;;;;;;;15.00;52.71;96669.41;10294365;28;20479;-57
2022/11/16 14:47:33;;;;;;;75.70;57.40;;;;;;;14.76;53.21;96658.09;10294234;28;20553;-57
2022/11/16 14:52:42;;;;;;;30.77;19.85;;;;;;;14.53;52.72;96650.19;10293650;28;20073;-57
2022/11/16 14:57:41;;;;;;;32.33;22.10;;;;;;;14.36;54.13;96651.59;10293549;28;20108;-57
2022/11/16 15:02:41;;;;;;;;;;;;;;;14.22;54.32;96646.00;10292792;28;20066;-57
2022/11/16 15:07:42;;;;;;;36.97;27.23;;;;;;;14.16;54.61;96638.38;10293265;28;20359;-57
2022/11/16 15:12:42;;;;;;;59.30;36.70;;;;;;;14.12;54.67;96635.00;10292960;28;20469;-57
2022/11/16 15:17:45;;;;;;;20.08;12.93;;;;;;;13.91;55.43;96633.97;10292165;28;20073;-57
2022/11/16 15:22:46;;;;;;;24.95;16.92;;;;;;;13.78;56.32;96643.06;10292291;28;20069;-57
2022/11/16 15:27:45;;;;;;;38.90;21.83;;;;;;;13.81;56.27;96648.19;10291735;28;20069;-57
2022/11/16 15:32:47;;;;;;;29.02;14.82;;;;;;;13.82;56.33;96639.47;10291843;28;20041;-56
2022/11/16 15:37:46;;;;;;;37.58;23.90;;;;;;;13.75;56.68;96635.38;10292312;28;20069;-57
2022/11/16 15:42:45;;;;;;;47.90;28.00;;;;;;;13.70;57.04;96642.44;10292163;28;20073;-56
2022/11/16 15:47:46;;;;;;;38.13;24.15;;;;;;;13.61;57.86;96646.22;10291190;28;20071;-57
2022/11/16 15:52:53;;;;;;;45.47;27.38;;;;;;;13.48;58.86;96643.09;10290665;28;20077;-56
2022/11/16 15:58:00;;;;;;;43.83;26.75;;;;;;;13.40;59.25;96637.28;10290372;28;20077;-56
2022/11/16 16:03:25;;;;;;;113.35;71.25;;;;;;;13.34;59.06;96634.84;10290922;28;20382;-56
2022/11/16 16:08:33;;;;;;;51.60;33.70;;;;;;;13.29;59.34;96628.91;10290921;28;20076;-57
2022/11/16 16:13:43;;;;;;;33.33;21.60;;;;;;;13.23;59.33;96627.31;10291099;28;20478;-57
2022/11/16 16:18:43;;;;;;;40.83;27.45;;;;;;;13.20;60.15;96631.78;10290731;28;20108;-57
2022/11/16 16:23:50;;;;;;;72.93;51.60;;;;;;;13.00;61.51;96632.34;10290836;28;20488;-57
2022/11/16 16:28:50;;;;;;;85.85;57.42;;;;;;;12.90;63.36;96632.63;10289989;28;20505;-56
2022/11/16 16:33:49;;;;;;;172.73;110.07;;;;;;;12.76;63.98;96650.38;10290316;28;20061;-56
2022/11/16 16:38:48;;;;;;;130.27;83.80;;;;;;;12.76;64.24;96626.94;10290775;28;20037;-57
2022/11/16 16:43:47;;;;;;;651.70;388.85;;;;;;;12.74;64.43;96626.13;10290241;28;20038;-58
2022/11/16 16:48:46;;;;;;;162.90;101.50;;;;;;;12.70;65.72;96643.59;10289995;28;20061;-56
2022/11/16 16:53:45;;;;;;;59.25;39.92;;;;;;;12.67;65.52;96627.19;10289854;28;20038;-57
2022/11/16 16:58:44;;;;;;;160.00;102.70;;;;;;;12.62;67.14;96626.47;10290218;28;20485;-57
2022/11/16 17:03:43;;;;;;;56.28;38.92;;;;;;;12.62;68.00;96626.47;10289847;28;20222;-57
2022/11/16 17:08:41;;;;;;;81.30;54.45;;;;;;;12.57;70.47;96633.56;10290064;28;20437;-57
2022/11/16 17:13:40;;;;;;;93.18;66.20;;;;;;;12.50;71.29;96627.66;10289034;28;20038;-56
2022/11/16 17:18:40;;;;;;;86.32;56.92;;;;;;;12.35;72.06;96633.28;10289978;28;20040;-56
2022/11/16 17:23:38;;;;;;;;;;;;;;;12.20;73.30;96622.31;10289432;28;20092;-57
2022/11/16 17:28:37;;;;;;;49.53;35.38;;;;;;;12.14;74.57;96619.91;10295503;28;19988;-57
2022/11/16 17:33:38;;;;;;;58.78;40.13;;;;;;;12.06;74.94;96614.03;10296852;28;20105;-58
2022/11/16 17:38:38;;;;;;;58.47;42.08;;;;;;;11.86;76.45;96594.59;10295595;28;20073;-57
2022/11/16 17:43:37;;;;;;;58.13;39.92;;;;;;;11.84;77.74;96611.97;10295323;28;20068;-57
2022/11/16 17:48:38;;;;;;;42.92;27.90;;;;;;;11.82;78.03;96613.72;10295978;28;20564;-57
2022/11/16 17:53:38;;;;;;;57.15;39.30;;;;;;;11.87;77.61;96611.03;10295669;28;20061;-57
2022/11/16 17:58:37;;;;;;;71.00;47.92;;;;;;;11.77;79.05;96604.34;10295749;28;20069;-58
2022/11/16 18:03:37;;;;;;;66.95;48.53;;;;;;;11.66;80.42;96615.84;10291098;28;20078;-56
2022/11/16 18:08:36;;;;;;;72.55;48.92;;;;;;;11.69;81.28;96607.16;10293883;28;20493;-58
2022/11/16 18:13:36;;;;;;;102.43;72.90;;;;;;;11.61;82.71;96603.84;10331133;28;20464;-58
2022/11/16 18:18:37;;;;;;;75.22;51.95;;;;;;;11.54;83.72;96597.09;10335287;28;20061;-55
2022/11/16 18:23:37;;;;;;;81.80;56.83;;;;;;;11.46;85.45;96587.75;10333180;28;20070;-55
2022/11/16 18:28:36;;;;;;;106.05;76.05;;;;;;;11.33;86.75;96578.50;10368236;28;20080;-55
2022/11/16 18:33:36;;;;;;;67.50;47.00;;;;;;;11.30;86.16;96588.13;10374166;28;20083;-58
2022/11/16 18:38:36;;;;;;;61.17;43.78;;;;;;;11.30;86.01;96583.78;10374150;28;20064;-58
2022/11/16 18:43:35;;;;;;;77.60;52.70;;;;;;;11.29;86.51;96576.91;10387906;28;20072;-57
2022/11/16 18:48:34;;;;;;;77.78;53.10;;;;;;;11.29;87.00;96582.09;10373294;28;20106;-57
2022/11/16 18:53:33;;;;;;;66.13;46.47;;;;;;;11.27;87.14;96588.19;10372378;28;20056;-58
2022/11/16 18:58:32;;;;;;;52.72;39.50;;;;;;;11.19;87.44;96580.56;10373317;28;20029;-57
2022/11/16 19:03:31;;;;;;;51.20;37.17;;;;;;;11.12;88.60;96586.78;10372367;28;20060;-58
2022/11/16 19:08:30;;;;;;;;;;;;;;;11.01;88.42;96577.50;10372710;28;20069;-57
2022/11/16 19:13:29;;;;;;;19.88;12.77;;;;;;;11.11;85.17;96574.72;10372933;28;20370;-57
2022/11/16 19:18:28;;;;;;;18.02;11.40;;;;;;;11.34;82.73;96567.25;10372389;28;20124;-58
2022/11/16 19:23:27;;;;;;;16.42;10.02;;;;;;;11.55;80.36;96557.22;10371775;28;20068;-58
2022/11/16 19:28:26;;;;;;;26.27;13.82;;;;;;;11.73;79.20;96559.38;10372203;28;20046;-58
2022/11/16 19:33:25;;;;;;;34.72;19.70;;;;;;;11.86;77.30;96562.53;10372120;28;20025;-58
2022/11/16 19:38:24;;;;;;;19.55;12.73;;;;;;;11.92;76.70;96562.38;10371081;28;20024;-58
2022/11/16 19:43:22;;;;;;;19.95;12.55;;;;;;;11.98;75.53;96551.81;10371519;28;20523;-58
2022/11/16 19:48:21;;;;;;;20.50;13.90;;;;;;;12.06;75.11;96562.88;10371008;28;20021;-57
2022/11/16 19:53:20;;;;;;;17.10;10.75;;;;;;;12.17;74.51;96566.94;10370599;28;20040;-57
2022/11/16 19:58:19;;;;;;;14.45;8.90;;;;;;;12.20;74.57;96565.09;10371162;28;20035;-58
2022/11/16 20:03:18;;;;;;;14.15;8.25;;;;;;;12.26;74.44;96564.94;10369938;28;20454;-58
2022/11/16 20:08:18;;;;;;;15.23;8.43;;;;;;;12.29;75.16;96570.09;10371190;28;20131;-56
2022/11/16 20:13:17;;;;;;;14.40;9.50;;;;;;;12.28;75.20;96568.41;10370620;28;20116;-56
2022/11/16 20:18:16;;;;;;;11.70;8.00;;;;;;;12.29;75.44;96564.03;10370778;28;20049;-56
2022/11/16 20:23:15;;;;;;;12.93;8.10;;;;;;;12.25;76.12;96555.44;10369046;28;20029;-57
2022/11/16 20:28:14;;;;;;;13.65;9.45;;;;;;;12.22;76.08;96552.91;10370491;28;20057;-57
2022/11/16 20:33:13;;;;;;;15.68;9.70;;;;;;;12.19;76.70;96549.56;10369585;28;20039;-58
2022/11/16 20:38:12;;;;;;;12.52;8.25;;;;;;;12.17;76.44;96540.94;10369627;28;20515;-57
2022/11/16 20:43:13;;;;;;;14.43;6.82;;;;;;;12.15;76.44;96533.16;10368904;28;20036;-57
2022/11/16 20:48:12;;;;;;;11.38;6.75;;;;;;;12.17;76.38;96520.13;10369664;28;20072;-58
2022/11/16 20:53:11;;;;;;;10.45;5.68;;;;;;;12.06;76.87;96507.41;10369264;28;20044;-58
2022/11/16 20:58:10;;;;;;;11.52;6.93;;;;;;;12.01;76.73;96498.88;10369723;28;20047;-59
2022/11/16 21:03:09;;;;;;;11.55;7.07;;;;;;;12.03;77.05;96497.09;10373867;28;20053;-57
2022/11/16 21:08:10;;;;;;;12.10;6.43;;;;;;;12.01;77.18;96475.47;10376559;28;20025;-59
2022/11/16 21:18:31;;;;;;;14.20;7.97;;;;;;;12.01;76.53;96462.50;10377229;28;20065;-58
2022/11/16 21:23:31;;;;;;;14.15;7.18;;;;;;;12.03;76.38;96450.31;10376700;28;20068;-58
2022/11/16 21:28:31;;;;;;;10.43;6.20;;;;;;;12.04;76.14;96457.19;10376796;28;20063;-57
2022/11/16 21:33:30;;;;;;;10.95;7.13;;;;;;;12.07;75.53;96451.94;10376419;28;20071;-58
2022/11/16 21:38:30;;;;;;;11.68;6.78;;;;;;;12.10;75.48;96438.84;10376618;28;20064;-58
2022/11/16 21:43:31;;;;;;;10.00;5.72;;;;;;;12.15;74.91;96444.75;10376591;28;20079;-56
2022/11/16 21:48:34;;;;;;;10.27;6.20;;;;;;;12.15;75.19;96442.16;10376152;28;20084;-56
2022/11/16 21:53:33;;;;;;;10.57;5.80;;;;;;;12.20;75.07;96434.22;10375623;28;20065;-57
2022/11/16 21:58:32;;;;;;;9.18;5.30;;;;;;;12.14;75.24;96437.84;10375672;28;20391;-57
2022/11/16 22:03:31;;;;;;;8.43;5.78;;;;;;;12.12;75.13;96425.81;10375366;28;20056;-57
2022/11/16 22:08:30;;;;;;;12.10;6.05;;;;;;;12.17;75.12;96422.16;10375198;28;20037;-57
2022/11/16 22:13:29;;;;;;;9.50;5.35;;;;;;;12.24;74.62;96423.69;10374479;28;20033;-57
2022/11/16 22:18:31;;;;;;;9.85;4.88;;;;;;;12.27;74.38;96407.13;10375308;28;20100;-57
2022/11/16 22:23:31;;;;;;;12.15;5.60;;;;;;;12.32;73.81;96401.81;10374526;28;20065;-57
2022/11/16 22:28:31;;;;;;;10.13;5.43;;;;;;;12.34;73.53;96392.22;10374707;28;20065;-57
2022/11/16 22:33:31;;;;;;;10.98;4.75;;;;;;;12.39;72.62;96378.22;10374367;28;20540;-55
2022/11/16 22:38:30;;;;;;;12.68;5.45;;;;;;;12.47;72.02;96362.34;10374331;28;20515;-55
2022/11/16 22:43:30;;;;;;;9.23;4.80;;;;;;;12.55;71.07;96378.56;10373995;28;20418;-55
2022/11/16 22:48:43;;;;;;;8.63;4.85;;;;;;;12.70;70.37;96380.72;10372309;28;20088;-57
2022/11/16 22:53:42;;;;;;;6.85;4.13;;;;;;;12.79;69.39;96394.31;10373112;28;20077;-57
2022/11/16 22:58:41;;;;;;;7.97;4.70;;;;;;;12.87;69.21;96390.56;10373399;28;20123;-57
2022/11/16 23:03:40;;;;;;;7.90;4.95;;;;;;;12.88;68.94;96388.81;10373038;28;20442;-57
2022/11/16 23:08:39;;;;;;;8.60;4.70;;;;;;;12.88;68.74;96388.81;10372411;28;20072;-57
2022/11/16 23:18:56;;;;;;;7.57;4.25;;;;;;;12.88;68.20;96368.00;10372092;28;20399;-57
2022/11/16 23:29:12;;;;;;;5.00;3.40;;;;;;;12.99;66.69;96355.47;10368570;28;20060;-57
2022/11/16 23:34:11;;;;;;;8.23;4.03;;;;;;;13.05;66.87;96359.66;10369455;28;20029;-57
2022/11/16 23:39:10;;;;;;;8.48;4.30;;;;;;;13.00;66.91;96365.00;10371435;28;20120;-57
2022/11/16 23:44:09;;;;;;;8.75;4.57;;;;;;;13.00;67.13;96352.00;10371477;28;20086;-57
2022/11/16 23:49:08;;;;;;;5.63;3.90;;;;;;;12.99;66.58;96354.63;10371248;28;20118;-57
2022/11/16 23:54:07;;;;;;;7.57;4.50;;;;;;;13.04;66.08;96363.97;10370391;28;20496;-57
2022/11/16 23:59:06;;;;;;;6.93;4.55;;;;;;;13.11;65.47;96352.47;10370990;28;20468;-57
